Time,TemperatureF,DewpointF,PressureIn,WindDirection,WindDirectionDegrees,WindSpeedMPH,WindSpeedGustMPH,Humidity,HourlyPrecipIn,Conditions,Clouds,dailyrainin,SoftwareType,DateUTC
2013-08-14 00:00:00,63.7,62.5,29.89,West,266,0.0,0.0,96,0.00,,,0.00,Wunderground v.1.15,2013-08-14 04:00:00,
2013-08-14 00:05:00,63.4,62.2,29.90,West,266,0.0,0.0,96,0.00,,,0.00,Wunderground v.1.15,2013-08-14 04:05:00,
2013-08-14 00:10:00,63.1,61.9,29.90,West,266,0.0,0.0,96,0.00,,,0.00,Wunderground v.1.15,2013-08-14 04:10:00,
2013-08-14 00:20:00,62.7,61.8,29.91,West,266,0.0,0.0,97,0.00,,,0.00,Wunderground v.1.15,2013-08-14 04:20:00,
2013-08-14 00:25:00,62.6,61.7,29.90,West,266,0.0,0.0,97,0.00,,,0.00,Wunderground v.1.15,2013-08-14 04:25:00,
2013-08-14 00:30:00,62.4,61.5,29.91,West,266,0.0,0.0,97,0.00,,,0.00,Wunderground v.1.15,2013-08-14 04:30:00,
2013-08-14 00:35:00,62.1,61.2,29.90,West,266,0.0,0.0,97,0.00,,,0.00,Wunderground v.1.15,2013-08-14 04:35:00,
2013-08-14 00:40:00,62.0,61.1,29.90,West,266,0.0,0.0,97,0.00,,,0.00,Wunderground v.1.15,2013-08-14 04:40:00,
2013-08-14 00:45:00,61.8,61.2,29.90,West,266,0.0,0.0,98,0.00,,,0.00,Wunderground v.1.15,2013-08-14 04:45:00,
2013-08-14 00:50:00,61.6,61.0,29.90,West,266,0.0,0.0,98,0.00,,,0.00,Wunderground v.1.15,2013-08-14 04:50:00,
2013-08-14 01:00:00,61.5,60.9,29.90,West,266,0.0,0.0,98,0.00,,,0.00,Wunderground v.1.15,2013-08-14 05:00:00,
2013-08-14 01:05:00,61.3,60.7,29.90,West,266,0.0,0.0,98,0.00,,,0.00,Wunderground v.1.15,2013-08-14 05:05:00,
2013-08-14 01:10:00,61.2,60.6,29.90,West,266,0.0,0.0,98,0.00,,,0.00,Wunderground v.1.15,2013-08-14 05:10:00,
2013-08-14 01:25:00,61.5,61.2,29.90,West,266,0.0,0.0,99,0.00,,,0.00,Wunderground v.1.15,2013-08-14 05:25:00,
2013-08-14 01:30:00,61.6,61.3,29.90,West,266,0.0,0.0,99,0.00,,,0.00,Wunderground v.1.15,2013-08-14 05:30:00,
2013-08-14 01:40:00,61.8,61.5,29.90,West,266,0.0,0.0,99,0.00,,,0.00,Wunderground v.1.15,2013-08-14 05:40:00,
2013-08-14 01:50:00,61.8,61.5,29.90,West,266,0.0,0.0,99,0.00,,,0.00,Wunderground v.1.15,2013-08-14 05:50:00,
2013-08-14 02:00:00,61.8,61.5,29.90,West,266,0.0,0.0,99,0.00,,,0.00,Wunderground v.1.15,2013-08-14 06:00:00,
2013-08-14 02:10:00,61.8,61.5,29.90,West,266,0.0,0.0,99,0.00,,,0.00,Wunderground v.1.15,2013-08-14 06:10:00,
2013-08-14 02:20:00,61.8,61.5,29.92,West,266,0.0,0.0,99,0.00,,,0.00,Wunderground v.1.15,2013-08-14 06:20:00,
2013-08-14 02:25:00,62.0,61.7,29.92,West,266,0.0,0.0,99,0.00,,,0.00,Wunderground v.1.15,2013-08-14 06:25:00,
2013-08-14 02:30:00,62.0,61.7,29.91,West,266,0.0,0.0,99,0.00,,,0.00,Wunderground v.1.15,2013-08-14 06:30:00,
2013-08-14 02:40:00,61.8,61.5,29.90,West,266,0.0,0.0,99,0.00,,,0.00,Wunderground v.1.15,2013-08-14 06:40:00,
2013-08-14 02:50:00,61.6,61.3,29.90,West,266,0.0,0.0,99,0.00,,,0.00,Wunderground v.1.15,2013-08-14 06:50:00,
2013-08-14 03:00:00,61.2,60.9,29.90,West,266,0.0,0.0,99,0.00,,,0.00,Wunderground v.1.15,2013-08-14 07:00:00,
2013-08-14 03:05:00,61.0,60.7,29.90,West,266,0.0,0.0,99,0.00,,,0.00,Wunderground v.1.15,2013-08-14 07:05:00,
2013-08-14 03:10:00,60.9,60.6,29.91,West,266,0.0,0.0,99,0.00,,,0.00,Wunderground v.1.15,2013-08-14 07:10:00,
2013-08-14 03:20:00,60.9,60.3,29.91,West,266,0.0,0.0,98,0.00,,,0.00,Wunderground v.1.15,2013-08-14 07:20:00,
2013-08-14 03:30:00,60.7,59.8,29.91,West,266,0.0,0.0,97,0.00,,,0.00,Wunderground v.1.15,2013-08-14 07:30:00,
2013-08-14 03:40:00,60.7,59.6,29.91,West,266,0.0,0.0,96,0.00,,,0.00,Wunderground v.1.15,2013-08-14 07:40:00,
2013-08-14 03:50:00,60.5,59.4,29.92,West,266,0.0,0.0,96,0.00,,,0.00,Wunderground v.1.15,2013-08-14 07:50:00,
2013-08-14 03:55:00,60.4,59.5,29.91,West,266,0.0,0.0,97,0.00,,,0.00,Wunderground v.1.15,2013-08-14 07:55:00,
2013-08-14 04:00:00,60.2,59.3,29.91,West,266,0.0,0.0,97,0.00,,,0.00,Wunderground v.1.15,2013-08-14 08:00:00,
2013-08-14 04:10:00,60.1,59.2,29.92,West,266,0.0,0.0,97,0.00,,,0.00,Wunderground v.1.15,2013-08-14 08:10:00,
2013-08-14 04:15:00,59.9,59.0,29.92,West,266,0.0,0.0,97,0.00,,,0.00,Wunderground v.1.15,2013-08-14 08:15:00,
2013-08-14 04:20:00,59.9,59.0,29.92,West,266,0.0,0.0,97,0.00,,,0.00,Wunderground v.1.15,2013-08-14 08:20:00,
2013-08-14 04:30:00,60.1,59.2,29.92,West,266,0.0,0.0,97,0.00,,,0.00,Wunderground v.1.15,2013-08-14 08:30:00,
2013-08-14 04:35:00,59.9,59.0,29.92,West,266,0.0,0.0,97,0.00,,,0.00,Wunderground v.1.15,2013-08-14 08:35:00,
2013-08-14 04:40:00,59.9,59.0,29.92,West,266,0.0,0.0,97,0.00,,,0.00,Wunderground v.1.15,2013-08-14 08:40:00,
2013-08-14 04:50:00,59.8,58.9,29.93,West,266,0.0,0.0,97,0.00,,,0.00,Wunderground v.1.15,2013-08-14 08:50:00,
2013-08-14 05:00:00,59.9,58.8,29.93,West,266,0.0,0.0,96,0.00,,,0.00,Wunderground v.1.15,2013-08-14 09:00:00,
2013-08-14 05:10:00,59.8,58.4,29.93,West,266,0.0,0.0,95,0.00,,,0.00,Wunderground v.1.15,2013-08-14 09:10:00,
2013-08-14 05:20:00,59.6,58.2,29.93,West,266,0.0,0.0,95,0.00,,,0.00,Wunderground v.1.15,2013-08-14 09:20:00,
2013-08-14 05:30:00,59.5,58.4,29.93,West,266,0.0,0.0,96,0.00,,,0.00,Wunderground v.1.15,2013-08-14 09:30:00,
2013-08-14 05:40:00,59.5,58.4,29.94,West,266,0.0,0.0,96,0.00,,,0.00,Wunderground v.1.15,2013-08-14 09:40:00,
2013-08-14 05:50:00,59.2,57.8,29.94,West,266,0.0,0.0,95,0.00,,,0.00,Wunderground v.1.15,2013-08-14 09:50:00,
2013-08-14 05:55:00,59.0,57.3,29.94,West,266,0.0,0.0,94,0.00,,,0.00,Wunderground v.1.15,2013-08-14 09:55:00,
2013-08-14 06:00:00,59.0,57.3,29.95,West,266,0.0,0.0,94,0.00,,,0.00,Wunderground v.1.15,2013-08-14 10:00:00,
2013-08-14 06:10:00,58.9,57.5,29.95,West,266,0.0,0.0,95,0.00,,,0.00,Wunderground v.1.15,2013-08-14 10:10:00,
2013-08-14 06:20:00,58.7,57.3,29.95,West,266,0.0,0.0,95,0.00,,,0.00,Wunderground v.1.15,2013-08-14 10:20:00,
2013-08-14 06:25:00,58.6,57.2,29.95,West,266,0.0,0.0,95,0.00,,,0.00,Wunderground v.1.15,2013-08-14 10:25:00,
2013-08-14 06:35:00,58.4,56.7,29.96,West,266,0.0,0.0,94,0.00,,,0.00,Wunderground v.1.15,2013-08-14 10:35:00,
2013-08-14 06:45:00,58.0,56.3,29.96,West,266,0.0,0.0,94,0.00,,,0.00,Wunderground v.1.15,2013-08-14 10:45:00,
2013-08-14 06:50:00,57.6,56.2,29.96,West,266,0.0,0.0,95,0.00,,,0.00,Wunderground v.1.15,2013-08-14 10:50:00,
2013-08-14 07:00:00,57.2,55.8,29.96,West,266,0.0,0.0,95,0.00,,,0.00,Wunderground v.1.15,2013-08-14 11:00:00,
2013-08-14 07:10:00,56.9,55.8,29.97,West,266,0.0,0.0,96,0.00,,,0.00,Wunderground v.1.15,2013-08-14 11:10:00,
2013-08-14 07:15:00,56.9,56.1,29.97,West,266,0.0,0.0,97,0.00,,,0.00,Wunderground v.1.15,2013-08-14 11:15:00,
2013-08-14 07:20:00,56.9,56.1,29.97,West,266,0.0,0.0,97,0.00,,,0.00,Wunderground v.1.15,2013-08-14 11:20:00,
2013-08-14 07:30:00,57.0,56.2,29.98,West,266,0.0,0.0,97,0.00,,,0.00,Wunderground v.1.15,2013-08-14 11:30:00,
2013-08-14 07:40:00,57.3,56.5,29.98,West,266,0.0,0.0,97,0.00,,,0.00,Wunderground v.1.15,2013-08-14 11:40:00,
2013-08-14 07:50:00,57.5,56.7,29.98,West,266,0.0,0.0,97,0.00,,,0.00,Wunderground v.1.15,2013-08-14 11:50:00,
2013-08-14 08:00:00,57.8,57.0,29.99,West,266,0.0,0.0,97,0.00,,,0.00,Wunderground v.1.15,2013-08-14 12:00:00,
2013-08-14 08:10:00,58.4,57.3,29.99,West,266,0.0,0.0,96,0.00,,,0.00,Wunderground v.1.15,2013-08-14 12:10:00,
2013-08-14 08:20:00,58.9,57.2,29.99,West,266,0.0,0.0,94,0.00,,,0.00,Wunderground v.1.15,2013-08-14 12:20:00,
2013-08-14 08:25:00,59.2,57.5,29.99,West,266,0.0,0.0,94,0.00,,,0.00,Wunderground v.1.15,2013-08-14 12:25:00,
2013-08-14 08:30:00,59.2,57.2,29.99,West,266,0.0,0.0,93,0.00,,,0.00,Wunderground v.1.15,2013-08-14 12:30:00,
2013-08-14 08:40:00,59.5,57.5,29.99,West,266,0.0,0.0,93,0.00,,,0.00,Wunderground v.1.15,2013-08-14 12:40:00,
2013-08-14 08:50:00,59.6,56.7,30.00,West,266,0.0,0.0,90,0.00,,,0.00,Wunderground v.1.15,2013-08-14 12:50:00,
2013-08-14 08:55:00,59.9,57.0,30.00,West,266,0.0,0.0,90,0.00,,,0.00,Wunderground v.1.15,2013-08-14 12:55:00,
2013-08-14 09:00:00,60.2,57.3,30.00,West,266,0.0,0.0,90,0.00,,,0.00,Wunderground v.1.15,2013-08-14 13:00:00,
2013-08-14 09:10:00,60.5,56.9,30.00,West,266,0.0,0.0,88,0.00,,,0.00,Wunderground v.1.15,2013-08-14 13:10:00,
2013-08-14 09:20:00,61.0,57.7,30.00,West,266,0.0,0.0,89,0.00,,,0.00,Wunderground v.1.15,2013-08-14 13:20:00,
2013-08-14 09:30:00,61.3,57.1,30.00,West,266,0.0,0.0,86,0.00,,,0.00,Wunderground v.1.15,2013-08-14 13:30:00,
2013-08-14 09:35:00,61.3,56.4,30.00,West,266,0.0,0.0,84,0.00,,,0.00,Wunderground v.1.15,2013-08-14 13:35:00,
2013-08-14 09:45:00,61.3,56.8,30.00,West,267,0.0,0.0,85,0.00,,,0.00,Wunderground v.1.15,2013-08-14 13:45:00,
2013-08-14 09:50:00,61.0,56.1,30.01,West,269,0.0,6.0,84,0.00,,,0.00,Wunderground v.1.15,2013-08-14 13:50:00,
2013-08-14 10:00:00,60.9,55.7,30.01,West,274,0.0,0.0,83,0.00,,,0.00,Wunderground v.1.15,2013-08-14 14:00:00,
2013-08-14 10:05:00,61.0,55.5,30.01,West,279,0.0,0.0,82,0.00,,,0.00,Wunderground v.1.15,2013-08-14 14:05:00,
2013-08-14 10:10:00,61.5,55.6,30.01,North,355,0.0,0.0,81,0.00,,,0.00,Wunderground v.1.15,2013-08-14 14:10:00,
2013-08-14 10:20:00,62.3,56.0,30.01,NW,312,0.0,0.0,80,0.00,,,0.00,Wunderground v.1.15,2013-08-14 14:20:00,
2013-08-14 10:30:00,63.2,55.5,30.02,North,350,0.0,0.0,76,0.00,,,0.00,Wunderground v.1.15,2013-08-14 14:30:00,
2013-08-14 10:35:00,63.7,56.4,30.02,North,349,0.0,0.0,77,0.00,,,0.00,Wunderground v.1.15,2013-08-14 14:35:00,
2013-08-14 10:40:00,64.2,56.5,30.02,WNW,301,0.0,0.0,76,0.00,,,0.00,Wunderground v.1.15,2013-08-14 14:40:00,
2013-08-14 10:50:00,64.7,56.6,30.02,NNW,327,1.0,1.0,75,0.00,,,0.00,Wunderground v.1.15,2013-08-14 14:50:00,
2013-08-14 11:00:00,65.0,55.8,30.02,West,280,2.0,2.0,72,0.00,,,0.00,Wunderground v.1.15,2013-08-14 15:00:00,
2013-08-14 11:05:00,65.2,55.6,30.02,WSW,239,2.0,2.0,71,0.00,,,0.00,Wunderground v.1.15,2013-08-14 15:05:00,
2013-08-14 11:10:00,65.3,55.3,30.02,NNW,348,1.0,1.0,70,0.00,,,0.00,Wunderground v.1.15,2013-08-14 15:10:00,
2013-08-14 11:15:00,65.3,55.3,30.02,WNW,296,0.0,1.0,70,0.00,,,0.00,Wunderground v.1.15,2013-08-14 15:15:00,
2013-08-14 11:20:00,65.0,54.6,30.03,WNW,289,0.0,0.0,69,0.00,,,0.00,Wunderground v.1.15,2013-08-14 15:20:00,
2013-08-14 11:30:00,65.5,55.1,30.03,NW,316,1.0,1.0,69,0.00,,,0.00,Wunderground v.1.15,2013-08-14 15:30:00,
2013-08-14 11:35:00,66.0,55.9,30.03,WNW,300,1.0,1.0,70,0.00,,,0.00,Wunderground v.1.15,2013-08-14 15:35:00,
2013-08-14 11:40:00,66.6,57.3,30.03,WSW,257,1.0,1.0,72,0.00,,,0.00,Wunderground v.1.15,2013-08-14 15:40:00,
2013-08-14 11:50:00,66.4,55.9,30.02,SSW,210,0.0,0.0,69,0.00,,,0.00,Wunderground v.1.15,2013-08-14 15:50:00,
2013-08-14 12:00:00,66.8,57.1,30.02,SSW,210,0.0,0.0,71,0.00,,,0.00,Wunderground v.1.15,2013-08-14 16:00:00,
2013-08-14 12:10:00,66.1,56.4,30.02,WNW,284,0.0,0.0,71,0.00,,,0.00,Wunderground v.1.15,2013-08-14 16:10:00,
2013-08-14 12:15:00,66.4,55.9,30.02,WNW,282,0.0,0.0,69,0.00,,,0.00,Wunderground v.1.15,2013-08-14 16:15:00,
2013-08-14 12:20:00,66.8,55.9,30.02,WNW,283,0.0,0.0,68,0.00,,,0.00,Wunderground v.1.15,2013-08-14 16:20:00,
2013-08-14 12:30:00,67.8,56.0,30.02,WNW,282,0.0,0.0,66,0.00,,,0.00,Wunderground v.1.15,2013-08-14 16:30:00,
2013-08-14 12:35:00,68.1,55.0,30.02,WNW,285,0.0,0.0,63,0.00,,,0.00,Wunderground v.1.15,2013-08-14 16:35:00,
2013-08-14 12:40:00,68.6,55.1,30.02,WNW,294,0.0,0.0,62,0.00,,,0.00,Wunderground v.1.15,2013-08-14 16:40:00,
2013-08-14 12:50:00,69.1,57.7,30.02,NW,316,0.0,0.0,67,0.00,,,0.00,Wunderground v.1.15,2013-08-14 16:50:00,
2013-08-14 12:55:00,68.4,55.7,30.02,West,264,1.0,1.0,64,0.00,,,0.00,Wunderground v.1.15,2013-08-14 16:55:00,
2013-08-14 13:00:00,68.3,56.5,30.02,WSW,244,1.0,4.0,66,0.00,,,0.00,Wunderground v.1.15,2013-08-14 17:00:00,
2013-08-14 13:10:00,68.1,55.0,30.01,SW,217,1.0,1.0,63,0.00,,,0.00,Wunderground v.1.15,2013-08-14 17:10:00,
2013-08-14 13:15:00,68.4,55.7,30.01,NNW,334,0.0,4.0,64,0.00,,,0.00,Wunderground v.1.15,2013-08-14 17:15:00,
2013-08-14 13:20:00,68.4,54.0,30.02,NNW,334,0.0,0.0,60,0.00,,,0.00,Wunderground v.1.15,2013-08-14 17:20:00,
2013-08-14 13:25:00,68.9,55.8,30.01,NNW,333,0.0,0.0,63,0.00,,,0.00,Wunderground v.1.15,2013-08-14 17:25:00,
2013-08-14 13:36:00,69.8,54.8,30.01,WNW,302,0.0,0.0,59,0.00,,,0.00,Wunderground v.1.15,2013-08-14 17:36:00,
2013-08-14 13:45:00,69.9,54.0,30.01,NW,318,1.0,1.0,57,0.00,,,0.00,Wunderground v.1.15,2013-08-14 17:45:00,
2013-08-14 13:55:00,69.4,52.0,30.01,NW,324,1.0,1.0,54,0.00,,,0.00,Wunderground v.1.15,2013-08-14 17:55:00,
2013-08-14 14:00:00,69.6,53.7,30.01,WNW,296,1.0,1.0,57,0.00,,,0.00,Wunderground v.1.15,2013-08-14 18:00:00,
2013-08-14 14:05:00,70.1,55.1,30.01,WNW,297,0.0,1.0,59,0.00,,,0.00,Wunderground v.1.15,2013-08-14 18:05:00,
2013-08-14 14:10:00,70.4,54.4,30.01,WSW,237,0.0,5.0,57,0.00,,,0.00,Wunderground v.1.15,2013-08-14 18:10:00,
2013-08-14 14:20:00,70.9,53.9,30.01,WNW,296,1.0,1.0,55,0.00,,,0.00,Wunderground v.1.15,2013-08-14 18:20:00,
2013-08-14 14:35:00,71.5,54.0,30.01,NW,316,1.0,3.0,54,0.00,,,0.00,Wunderground v.1.15,2013-08-14 18:35:00,
2013-08-14 14:40:00,72.0,56.4,30.01,NW,315,1.0,1.0,58,0.00,,,0.00,Wunderground v.1.15,2013-08-14 18:40:00,
2013-08-14 14:50:00,71.6,53.6,30.01,NW,312,1.0,1.0,53,0.00,,,0.00,Wunderground v.1.15,2013-08-14 18:50:00,
2013-08-14 14:55:00,71.3,52.8,30.01,West,269,1.0,1.0,52,0.00,,,0.00,Wunderground v.1.15,2013-08-14 18:55:00,
2013-08-14 15:05:00,70.9,51.9,30.01,West,272,1.0,5.0,51,0.00,,,0.00,Wunderground v.1.15,2013-08-14 19:05:00,
2013-08-14 15:15:00,71.5,53.5,30.00,WSW,257,1.0,3.0,53,0.00,,,0.00,Wunderground v.1.15,2013-08-14 19:15:00,
2013-08-14 15:30:00,72.0,51.8,30.00,North,355,1.0,1.0,49,0.00,,,0.00,Wunderground v.1.15,2013-08-14 19:30:00,
2013-08-14 15:35:00,71.8,53.2,30.00,NW,307,1.0,1.0,52,0.00,,,0.00,Wunderground v.1.15,2013-08-14 19:35:00,
2013-08-14 15:40:00,71.6,53.6,30.00,WNW,300,2.0,2.0,53,0.00,,,0.00,Wunderground v.1.15,2013-08-14 19:40:00,
2013-08-14 15:45:00,71.6,52.0,30.00,WNW,288,1.0,2.0,50,0.00,,,0.00,Wunderground v.1.15,2013-08-14 19:45:00,
2013-08-14 15:50:00,71.6,53.6,30.00,WNW,302,1.0,1.0,53,0.00,,,0.00,Wunderground v.1.15,2013-08-14 19:50:00,
2013-08-14 15:55:00,71.8,53.2,30.00,WSW,242,1.0,1.0,52,0.00,,,0.00,Wunderground v.1.15,2013-08-14 19:55:00,
2013-08-14 16:00:00,72.0,52.9,30.00,West,274,1.0,2.0,51,0.00,,,0.00,Wunderground v.1.15,2013-08-14 20:00:00,
2013-08-14 16:10:00,71.8,52.2,30.00,WNW,294,2.0,3.0,50,0.00,,,0.00,Wunderground v.1.15,2013-08-14 20:10:00,
2013-08-14 16:25:00,72.5,55.4,30.00,NNW,339,0.0,4.0,55,0.00,,,0.00,Wunderground v.1.15,2013-08-14 20:25:00,
2013-08-14 16:35:00,72.5,53.9,30.00,WNW,296,1.0,2.0,52,0.00,,,0.00,Wunderground v.1.15,2013-08-14 20:35:00,
2013-08-14 16:40:00,72.5,54.4,30.01,NW,323,1.0,3.0,53,0.00,,,0.00,Wunderground v.1.15,2013-08-14 20:40:00,
2013-08-14 16:55:00,70.9,54.4,30.01,NW,323,0.0,1.0,56,0.00,,,0.00,Wunderground v.1.15,2013-08-14 20:55:00,
2013-08-14 17:00:00,70.8,53.8,30.00,NW,323,0.0,0.0,55,0.00,,,0.00,Wunderground v.1.15,2013-08-14 21:00:00,
2013-08-14 17:05:00,70.4,53.5,30.00,NW,323,0.0,0.0,55,0.00,,,0.00,Wunderground v.1.15,2013-08-14 21:05:00,
2013-08-14 17:10:00,70.1,54.2,30.00,NW,323,0.0,0.0,57,0.00,,,0.00,Wunderground v.1.15,2013-08-14 21:10:00,
2013-08-14 17:20:00,70.3,54.3,30.01,NW,323,0.0,0.0,57,0.00,,,0.00,Wunderground v.1.15,2013-08-14 21:20:00,
2013-08-14 17:30:00,70.3,54.8,30.00,NW,324,0.0,0.0,58,0.00,,,0.00,Wunderground v.1.15,2013-08-14 21:30:00,
2013-08-14 17:40:00,69.8,53.9,30.01,NW,324,0.0,0.0,57,0.00,,,0.00,Wunderground v.1.15,2013-08-14 21:40:00,
2013-08-14 17:50:00,69.9,53.0,30.01,NNW,328,1.0,1.0,55,0.00,,,0.00,Wunderground v.1.15,2013-08-14 21:50:00,
2013-08-14 17:55:00,69.9,53.5,30.01,NNW,338,2.0,2.0,56,0.00,,,0.00,Wunderground v.1.15,2013-08-14 21:55:00,
2013-08-14 18:00:00,69.6,54.2,30.01,NNW,340,2.0,2.0,58,0.00,,,0.00,Wunderground v.1.15,2013-08-14 22:00:00,
2013-08-14 18:05:00,69.4,54.0,30.01,NNW,340,1.0,2.0,58,0.00,,,0.00,Wunderground v.1.15,2013-08-14 22:05:00,
2013-08-14 18:10:00,69.3,53.9,30.01,NNW,340,0.0,0.0,58,0.00,,,0.00,Wunderground v.1.15,2013-08-14 22:10:00,
2013-08-14 18:15:00,69.3,54.4,30.01,NNW,340,0.0,0.0,59,0.00,,,0.00,Wunderground v.1.15,2013-08-14 22:15:00,
2013-08-14 18:25:00,68.8,53.9,30.01,NNW,341,0.0,1.0,59,0.00,,,0.00,Wunderground v.1.15,2013-08-14 22:25:00,
2013-08-14 18:35:00,68.8,53.4,30.01,NNW,341,1.0,2.0,58,0.00,,,0.00,Wunderground v.1.15,2013-08-14 22:35:00,
2013-08-14 18:40:00,68.6,54.2,30.01,NNW,341,1.0,2.0,60,0.00,,,0.00,Wunderground v.1.15,2013-08-14 22:40:00,
2013-08-14 18:50:00,68.3,54.3,30.01,NNW,342,0.0,0.0,61,0.00,,,0.00,Wunderground v.1.15,2013-08-14 22:50:00,
2013-08-14 19:00:00,67.6,53.7,30.01,NNW,342,1.0,1.0,61,0.00,,,0.00,Wunderground v.1.15,2013-08-14 23:00:00,
2013-08-14 19:10:00,67.8,54.3,30.01,NNW,342,0.0,0.0,62,0.00,,,0.00,Wunderground v.1.15,2013-08-14 23:10:00,
2013-08-14 19:15:00,67.8,53.9,30.02,NNW,342,0.0,1.0,61,0.00,,,0.00,Wunderground v.1.15,2013-08-14 23:15:00,
2013-08-14 19:25:00,67.8,53.4,30.02,NNW,344,1.0,3.0,60,0.00,,,0.00,Wunderground v.1.15,2013-08-14 23:25:00,
2013-08-14 19:30:00,67.6,53.7,30.02,NNW,344,1.0,1.0,61,0.00,,,0.00,Wunderground v.1.15,2013-08-14 23:30:00,
2013-08-14 19:40:00,67.1,53.6,30.02,NNW,344,0.0,0.0,62,0.00,,,0.00,Wunderground v.1.15,2013-08-14 23:40:00,
2013-08-14 19:50:00,66.4,53.8,30.02,NNW,344,0.0,0.0,64,0.00,,,0.00,Wunderground v.1.15,2013-08-14 23:50:00,
2013-08-14 20:00:00,66.0,54.3,30.03,NNW,344,0.0,0.0,66,0.00,,,0.00,Wunderground v.1.15,2013-08-15 00:00:00,
2013-08-14 20:05:00,65.6,53.9,30.03,NNW,344,0.0,0.0,66,0.00,,,0.00,Wunderground v.1.15,2013-08-15 00:05:00,
2013-08-14 20:10:00,65.2,54.0,30.03,NNW,344,0.0,0.0,67,0.00,,,0.00,Wunderground v.1.15,2013-08-15 00:10:00,
2013-08-14 20:20:00,63.9,53.9,30.03,NNW,344,0.0,0.0,70,0.00,,,0.00,Wunderground v.1.15,2013-08-15 00:20:00,
2013-08-14 20:30:00,62.7,53.9,30.04,NNW,344,0.0,0.0,73,0.00,,,0.00,Wunderground v.1.15,2013-08-15 00:30:00,
2013-08-14 20:35:00,62.1,53.7,30.04,NNW,344,0.0,0.0,74,0.00,,,0.00,Wunderground v.1.15,2013-08-15 00:35:00,
2013-08-14 20:45:00,61.2,53.6,30.04,NNW,344,0.0,0.0,76,0.00,,,0.00,Wunderground v.1.15,2013-08-15 00:45:00,
2013-08-14 20:50:00,60.7,53.8,30.05,NNW,344,0.0,0.0,78,0.00,,,0.00,Wunderground v.1.15,2013-08-15 00:50:00,
2013-08-14 20:55:00,60.2,53.7,30.05,NNW,344,0.0,0.0,79,0.00,,,0.00,Wunderground v.1.15,2013-08-15 00:55:00,
2013-08-14 21:00:00,59.8,53.6,30.05,NNW,344,0.0,0.0,80,0.00,,,0.00,Wunderground v.1.15,2013-08-15 01:00:00,
2013-08-14 21:10:00,59.2,53.4,30.06,NNW,344,0.0,0.0,81,0.00,,,0.00,Wunderground v.1.15,2013-08-15 01:10:00,
2013-08-14 21:20:00,58.4,53.3,30.05,NNW,344,0.0,0.0,83,0.00,,,0.00,Wunderground v.1.15,2013-08-15 01:20:00,
2013-08-14 21:25:00,58.1,53.0,30.06,NNW,344,0.0,0.0,83,0.00,,,0.00,Wunderground v.1.15,2013-08-15 01:25:00,
2013-08-14 21:35:00,57.8,52.7,30.06,NNW,344,0.0,0.0,83,0.00,,,0.00,Wunderground v.1.15,2013-08-15 01:35:00,
2013-08-14 21:40:00,57.6,52.8,30.06,NNW,344,0.0,0.0,84,0.00,,,0.00,Wunderground v.1.15,2013-08-15 01:40:00,
2013-08-14 21:45:00,57.3,52.5,30.06,NNW,344,0.0,0.0,84,0.00,,,0.00,Wunderground v.1.15,2013-08-15 01:45:00,
2013-08-14 21:50:00,57.2,52.7,30.06,NNW,344,0.0,0.0,85,0.00,,,0.00,Wunderground v.1.15,2013-08-15 01:50:00,
2013-08-14 22:00:00,56.7,52.6,30.07,NNW,344,0.0,0.0,86,0.00,,,0.00,Wunderground v.1.15,2013-08-15 02:00:00,
2013-08-14 22:10:00,56.5,52.7,30.08,NNW,344,0.0,0.0,87,0.00,,,0.00,Wunderground v.1.15,2013-08-15 02:10:00,
2013-08-14 22:15:00,56.2,52.4,30.08,NNW,344,0.0,0.0,87,0.00,,,0.00,Wunderground v.1.15,2013-08-15 02:15:00,
2013-08-14 22:25:00,55.9,52.4,30.08,NNW,344,0.0,0.0,88,0.00,,,0.00,Wunderground v.1.15,2013-08-15 02:25:00,
2013-08-14 22:30:00,55.7,52.2,30.08,NNW,344,0.0,0.0,88,0.00,,,0.00,Wunderground v.1.15,2013-08-15 02:30:00,
2013-08-14 22:35:00,55.4,51.9,30.08,NNW,344,0.0,0.0,88,0.00,,,0.00,Wunderground v.1.15,2013-08-15 02:35:00,
2013-08-14 22:40:00,55.3,51.8,30.08,NNW,344,0.0,0.0,88,0.00,,,0.00,Wunderground v.1.15,2013-08-15 02:40:00,
2013-08-14 22:45:00,55.1,51.9,30.08,NNW,344,0.0,0.0,89,0.00,,,0.00,Wunderground v.1.15,2013-08-15 02:45:00,
2013-08-14 22:55:00,54.7,51.8,30.08,NNW,344,0.0,0.0,90,0.00,,,0.00,Wunderground v.1.15,2013-08-15 02:55:00,
2013-08-14 23:00:00,54.5,51.6,30.08,NNW,344,0.0,0.0,90,0.00,,,0.00,Wunderground v.1.15,2013-08-15 03:00:00,
2013-08-14 23:05:00,54.4,51.8,30.08,NNW,344,0.0,0.0,91,0.00,,,0.00,Wunderground v.1.15,2013-08-15 03:05:00,
2013-08-14 23:10:00,54.4,51.8,30.08,NNW,344,0.0,0.0,91,0.00,,,0.00,Wunderground v.1.15,2013-08-15 03:10:00,
2013-08-14 23:20:00,54.2,51.9,30.08,NNW,344,0.0,0.0,92,0.00,,,0.00,Wunderground v.1.15,2013-08-15 03:20:00,
2013-08-14 23:25:00,54.1,51.8,30.09,NNW,344,0.0,0.0,92,0.00,,,0.00,Wunderground v.1.15,2013-08-15 03:25:00,
2013-08-14 23:30:00,53.9,51.6,30.09,NNW,344,0.0,0.0,92,0.00,,,0.00,Wunderground v.1.15,2013-08-15 03:30:00,
2013-08-14 23:40:00,53.6,51.3,30.09,NNW,344,0.0,0.0,92,0.00,,,0.00,Wunderground v.1.15,2013-08-15 03:40:00,
2013-08-14 23:45:00,53.6,51.6,30.09,NNW,344,0.0,0.0,93,0.00,,,0.00,Wunderground v.1.15,2013-08-15 03:45:00,
2013-08-14 23:55:00,53.5,51.5,30.09,NNW,344,0.0,0.0,93,0.00,,,0.00,Wunderground v.1.15,2013-08-15 03:55:00,